sensor_id;sensor_type;location;lat;lon;timestamp;temperature;humidity
28823;DHT22;15961;54.678;9.110;2023-03-01T00:02:05;-0.10;99.90
28823;DHT22;15961;54.678;9.110;2023-03-01T00:04:31;-0.10;99.90
28823;DHT22;15961;54.678;9.110;2023-03-01T00:06:57;-0.10;99.90
28823;DHT22;15961;54.678;9.110;2023-03-01T00:09:23;0.00;99.90
28823;DHT22;15961;54.678;9.110;2023-03-01T00:11:48;0.00;99.90
28823;DHT22;15961;54.678;9.110;2023-03-01T00:14:14;0.00;99.90
28823;DHT22;15961;54.678;9.110;2023-03-01T00:16:43;0.00;99.90
28823;DHT22;15961;54.678;9.110;2023-03-01T00:19:12;0.00;99.90
28823;DHT22;15961;54.678;9.110;2023-03-01T00:21:39;0.00;99.90
28823;DHT22;15961;54.678;9.110;2023-03-01T00:24:05;0.10;99.90
28823;DHT22;15961;54.678;9.110;2023-03-01T00:26:31;0.00;99.90
28823;DHT22;15961;54.678;9.110;2023-03-01T00:28:59;0.00;99.90
28823;DHT22;15961;54.678;9.110;2023-03-01T00:31:30;0.00;99.90
28823;DHT22;15961;54.678;9.110;2023-03-01T00:34:01;0.00;99.90
28823;DHT22;15961;54.678;9.110;2023-03-01T00:36:30;0.00;99.90
28823;DHT22;15961;54.678;9.110;2023-03-01T00:38:57;-0.10;99.90
28823;DHT22;15961;54.678;9.110;2023-03-01T00:41:23;-0.10;99.90
28823;DHT22;15961;54.678;9.110;2023-03-01T00:43:52;0.00;99.90
28823;DHT22;15961;54.678;9.110;2023-03-01T00:46:20;0.00;99.90
28823;DHT22;15961;54.678;9.110;2023-03-01T00:48:47;0.00;99.90
28823;DHT22;15961;54.678;9.110;2023-03-01T00:51:15;0.00;99.90
28823;DHT22;15961;54.678;9.110;2023-03-01T00:53:41;0.00;99.90
28823;DHT22;15961;54.678;9.110;2023-03-01T00:56:09;0.10;99.90
28823;DHT22;15961;54.678;9.110;2023-03-01T00:58:35;0.10;99.90
28823;DHT22;15961;54.678;9.110;2023-03-01T01:01:06;0.20;99.90
28823;DHT22;15961;54.678;9.110;2023-03-01T01:03:32;0.30;99.90
28823;DHT22;15961;54.678;9.110;2023-03-01T01:05:58;0.30;99.90
28823;DHT22;15961;54.678;9.110;2023-03-01T01:08:23;0.30;99.90
28823;DHT22;15961;54.678;9.110;2023-03-01T01:10:49;0.40;99.90
28823;DHT22;15961;54.678;9.110;2023-03-01T01:13:14;0.40;99.90
28823;DHT22;15961;54.678;9.110;2023-03-01T01:15:40;0.40;99.90
28823;DHT22;15961;54.678;9.110;2023-03-01T01:18:06;0.40;99.90
28823;DHT22;15961;54.678;9.110;2023-03-01T01:20:32;0.50;99.90
28823;DHT22;15961;54.678;9.110;2023-03-01T01:22:58;0.50;99.90
28823;DHT22;15961;54.678;9.110;2023-03-01T01:25:23;0.50;99.90
28823;DHT22;15961;54.678;9.110;2023-03-01T01:27:51;0.50;99.90
28823;DHT22;15961;54.678;9.110;2023-03-01T01:30:17;0.50;99.90
28823;DHT22;15961;54.678;9.110;2023-03-01T01:32:43;0.50;99.90
28823;DHT22;15961;54.678;9.110;2023-03-01T01:35:08;0.50;99.90
28823;DHT22;15961;54.678;9.110;2023-03-01T01:37:34;0.50;99.90
28823;DHT22;15961;54.678;9.110;2023-03-01T01:40:00;0.50;99.90
28823;DHT22;15961;54.678;9.110;2023-03-01T01:42:28;0.50;99.90
28823;DHT22;15961;54.678;9.110;2023-03-01T01:45:46;0.50;99.90
28823;DHT22;15961;54.678;9.110;2023-03-01T01:48:12;0.50;99.90
28823;DHT22;15961;54.678;9.110;2023-03-01T01:50:39;0.50;99.90
28823;DHT22;15961;54.678;9.110;2023-03-01T01:53:14;0.50;99.90
28823;DHT22;15961;54.678;9.110;2023-03-01T01:55:44;0.50;99.90
28823;DHT22;15961;54.678;9.110;2023-03-01T01:58:14;0.40;99.90
28823;DHT22;15961;54.678;9.110;2023-03-01T02:00:43;0.50;99.90
28823;DHT22;15961;54.678;9.110;2023-03-01T02:03:25;0.40;99.90
28823;DHT22;15961;54.678;9.110;2023-03-01T02:05:58;0.40;99.90
28823;DHT22;15961;54.678;9.110;2023-03-01T02:08:29;0.50;99.90
28823;DHT22;15961;54.678;9.110;2023-03-01T02:10:56;0.50;99.90
28823;DHT22;15961;54.678;9.110;2023-03-01T02:13:23;0.40;99.90
28823;DHT22;15961;54.678;9.110;2023-03-01T02:15:49;0.50;99.90
28823;DHT22;15961;54.678;9.110;2023-03-01T02:18:17;0.50;99.90
28823;DHT22;15961;54.678;9.110;2023-03-01T02:21:04;0.50;99.90
28823;DHT22;15961;54.678;9.110;2023-03-01T02:23:31;0.40;99.90
28823;DHT22;15961;54.678;9.110;2023-03-01T02:26:11;0.50;99.90
28823;DHT22;15961;54.678;9.110;2023-03-01T02:28:42;0.50;99.90
28823;DHT22;15961;54.678;9.110;2023-03-01T02:31:10;0.50;99.90
28823;DHT22;15961;54.678;9.110;2023-03-01T02:33:56;0.40;99.90
28823;DHT22;15961;54.678;9.110;2023-03-01T02:36:25;0.40;99.90
28823;DHT22;15961;54.678;9.110;2023-03-01T02:38:57;0.50;99.90
28823;DHT22;15961;54.678;9.110;2023-03-01T02:41:25;0.40;99.90
28823;DHT22;15961;54.678;9.110;2023-03-01T02:43:51;0.30;99.90
28823;DHT22;15961;54.678;9.110;2023-03-01T02:46:21;0.30;99.90
28823;DHT22;15961;54.678;9.110;2023-03-01T02:48:54;0.30;99.90
28823;DHT22;15961;54.678;9.110;2023-03-01T02:51:38;0.20;99.90
28823;DHT22;15961;54.678;9.110;2023-03-01T02:56:52;0.10;99.90
28823;DHT22;15961;54.678;9.110;2023-03-01T02:59:21;0.10;99.90
28823;DHT22;15961;54.678;9.110;2023-03-01T03:01:47;0.10;99.90
28823;DHT22;15961;54.678;9.110;2023-03-01T03:04:16;0.00;99.90
28823;DHT22;15961;54.678;9.110;2023-03-01T03:06:47;0.00;99.90
28823;DHT22;15961;54.678;9.110;2023-03-01T03:09:14;-0.10;99.90
28823;DHT22;15961;54.678;9.110;2023-03-01T03:11:40;-0.10;99.90
28823;DHT22;15961;54.678;9.110;2023-03-01T03:14:08;-0.10;99.90
28823;DHT22;15961;54.678;9.110;2023-03-01T03:16:43;-0.20;99.90
28823;DHT22;15961;54.678;9.110;2023-03-01T03:19:09;-0.10;99.90
28823;DHT22;15961;54.678;9.110;2023-03-01T03:21:35;-0.20;99.90
28823;DHT22;15961;54.678;9.110;2023-03-01T03:24:01;-0.20;99.90
28823;DHT22;15961;54.678;9.110;2023-03-01T03:26:26;-0.20;99.90
28823;DHT22;15961;54.678;9.110;2023-03-01T03:28:52;-0.10;99.90
28823;DHT22;15961;54.678;9.110;2023-03-01T03:31:18;-0.20;99.90
28823;DHT22;15961;54.678;9.110;2023-03-01T03:33:43;-0.30;99.90
28823;DHT22;15961;54.678;9.110;2023-03-01T03:36:09;-0.40;99.90
28823;DHT22;15961;54.678;9.110;2023-03-01T03:38:38;-0.40;99.90
28823;DHT22;15961;54.678;9.110;2023-03-01T03:41:06;-0.50;99.90
28823;DHT22;15961;54.678;9.110;2023-03-01T03:43:34;-0.50;99.90
28823;DHT22;15961;54.678;9.110;2023-03-01T03:46:01;-0.50;99.90
28823;DHT22;15961;54.678;9.110;2023-03-01T03:48:35;-0.50;99.90
28823;DHT22;15961;54.678;9.110;2023-03-01T03:51:00;-0.40;99.90
28823;DHT22;15961;54.678;9.110;2023-03-01T03:53:28;-0.50;99.90
28823;DHT22;15961;54.678;9.110;2023-03-01T03:55:54;-0.50;99.90
28823;DHT22;15961;54.678;9.110;2023-03-01T03:58:23;-0.60;99.90
28823;DHT22;15961;54.678;9.110;2023-03-01T04:00:55;-0.60;99.90
28823;DHT22;15961;54.678;9.110;2023-03-01T04:03:25;-0.60;99.90
28823;DHT22;15961;54.678;9.110;2023-03-01T04:05:52;-0.70;99.90
28823;DHT22;15961;54.678;9.110;2023-03-01T04:08:23;-0.70;99.90
28823;DHT22;15961;54.678;9.110;2023-03-01T04:10:52;-0.80;99.90
28823;DHT22;15961;54.678;9.110;2023-03-01T04:13:20;-0.80;99.90
28823;DHT22;15961;54.678;9.110;2023-03-01T04:15:51;-0.80;99.90
28823;DHT22;15961;54.678;9.110;2023-03-01T04:18:18;-0.90;99.90
28823;DHT22;15961;54.678;9.110;2023-03-01T04:20:44;-0.90;99.90
28823;DHT22;15961;54.678;9.110;2023-03-01T04:23:18;-1.00;99.90
28823;DHT22;15961;54.678;9.110;2023-03-01T04:25:57;-1.00;99.90
28823;DHT22;15961;54.678;9.110;2023-03-01T04:28:28;-1.00;99.90
28823;DHT22;15961;54.678;9.110;2023-03-01T04:30:56;-1.10;99.90
28823;DHT22;15961;54.678;9.110;2023-03-01T04:33:22;-1.10;99.90
28823;DHT22;15961;54.678;9.110;2023-03-01T04:35:48;-1.10;99.90
28823;DHT22;15961;54.678;9.110;2023-03-01T04:38:20;-1.10;99.90
28823;DHT22;15961;54.678;9.110;2023-03-01T04:40:46;-1.20;99.90
28823;DHT22;15961;54.678;9.110;2023-03-01T04:43:13;-1.20;99.90
28823;DHT22;15961;54.678;9.110;2023-03-01T04:45:39;-1.20;99.90
28823;DHT22;15961;54.678;9.110;2023-03-01T04:48:05;-1.20;99.90
28823;DHT22;15961;54.678;9.110;2023-03-01T04:50:31;-1.20;99.90
28823;DHT22;15961;54.678;9.110;2023-03-01T04:52:56;-1.20;99.90
28823;DHT22;15961;54.678;9.110;2023-03-01T04:55:26;-1.10;99.90
28823;DHT22;15961;54.678;9.110;2023-03-01T04:57:52;-1.10;99.90
28823;DHT22;15961;54.678;9.110;2023-03-01T05:00:19;-1.10;99.90
28823;DHT22;15961;54.678;9.110;2023-03-01T05:05:19;-1.10;99.90
28823;DHT22;15961;54.678;9.110;2023-03-01T05:07:48;-1.10;99.90
28823;DHT22;15961;54.678;9.110;2023-03-01T05:10:13;-1.00;99.90
28823;DHT22;15961;54.678;9.110;2023-03-01T05:12:39;-1.00;99.90
28823;DHT22;15961;54.678;9.110;2023-03-01T05:15:05;-1.00;99.90
28823;DHT22;15961;54.678;9.110;2023-03-01T05:17:33;-1.00;99.90
28823;DHT22;15961;54.678;9.110;2023-03-01T05:19:59;-1.00;99.90
28823;DHT22;15961;54.678;9.110;2023-03-01T05:22:25;-1.00;99.90
28823;DHT22;15961;54.678;9.110;2023-03-01T05:24:50;-1.00;99.90
28823;DHT22;15961;54.678;9.110;2023-03-01T05:27:16;-1.00;99.90
28823;DHT22;15961;54.678;9.110;2023-03-01T05:29:41;-0.90;99.90
28823;DHT22;15961;54.678;9.110;2023-03-01T05:32:07;-0.90;99.90
28823;DHT22;15961;54.678;9.110;2023-03-01T05:34:37;-0.90;99.90
28823;DHT22;15961;54.678;9.110;2023-03-01T05:37:03;-0.90;99.90
28823;DHT22;15961;54.678;9.110;2023-03-01T05:39:29;-0.90;99.90
28823;DHT22;15961;54.678;9.110;2023-03-01T05:41:57;-0.90;99.90
28823;DHT22;15961;54.678;9.110;2023-03-01T05:44:23;-0.90;99.90
28823;DHT22;15961;54.678;9.110;2023-03-01T05:46:49;-0.90;99.90
28823;DHT22;15961;54.678;9.110;2023-03-01T05:49:15;-0.90;99.90
28823;DHT22;15961;54.678;9.110;2023-03-01T05:51:42;-0.90;99.90
28823;DHT22;15961;54.678;9.110;2023-03-01T05:54:09;-1.00;99.90
28823;DHT22;15961;54.678;9.110;2023-03-01T05:56:35;-0.90;99.90
28823;DHT22;15961;54.678;9.110;2023-03-01T05:59:02;-0.90;99.90
28823;DHT22;15961;54.678;9.110;2023-03-01T06:01:28;-0.90;99.90
28823;DHT22;15961;54.678;9.110;2023-03-01T06:03:55;-0.90;99.90
28823;DHT22;15961;54.678;9.110;2023-03-01T06:06:21;-0.90;99.90
28823;DHT22;15961;54.678;9.110;2023-03-01T06:08:46;-0.90;99.90
28823;DHT22;15961;54.678;9.110;2023-03-01T06:11:12;-0.90;99.90
28823;DHT22;15961;54.678;9.110;2023-03-01T06:13:37;-0.90;99.90
28823;DHT22;15961;54.678;9.110;2023-03-01T06:16:06;-0.90;99.90
28823;DHT22;15961;54.678;9.110;2023-03-01T06:18:32;-0.90;99.90
28823;DHT22;15961;54.678;9.110;2023-03-01T06:20:58;-0.90;99.90
28823;DHT22;15961;54.678;9.110;2023-03-01T06:23:23;-0.80;99.90
28823;DHT22;15961;54.678;9.110;2023-03-01T06:25:49;-0.80;99.90
28823;DHT22;15961;54.678;9.110;2023-03-01T06:28:18;-0.70;99.90
28823;DHT22;15961;54.678;9.110;2023-03-01T06:30:43;-0.70;99.90
28823;DHT22;15961;54.678;9.110;2023-03-01T06:33:09;-0.70;99.90
28823;DHT22;15961;54.678;9.110;2023-03-01T06:35:34;-0.70;99.90
28823;DHT22;15961;54.678;9.110;2023-03-01T06:38:01;-0.60;99.90
28823;DHT22;15961;54.678;9.110;2023-03-01T06:40:27;-0.60;99.90
28823;DHT22;15961;54.678;9.110;2023-03-01T06:42:53;-0.60;99.90
28823;DHT22;15961;54.678;9.110;2023-03-01T06:45:20;-0.60;99.90
28823;DHT22;15961;54.678;9.110;2023-03-01T06:47:46;-0.60;99.90
28823;DHT22;15961;54.678;9.110;2023-03-01T06:50:12;-0.60;99.90
28823;DHT22;15961;54.678;9.110;2023-03-01T06:52:38;-0.50;99.90
28823;DHT22;15961;54.678;9.110;2023-03-01T06:55:04;-0.50;99.90
28823;DHT22;15961;54.678;9.110;2023-03-01T06:57:30;-0.60;99.90
28823;DHT22;15961;54.678;9.110;2023-03-01T06:59:56;-0.60;99.90
28823;DHT22;15961;54.678;9.110;2023-03-01T07:02:22;-0.60;99.90
28823;DHT22;15961;54.678;9.110;2023-03-01T07:04:49;-0.60;99.90
28823;DHT22;15961;54.678;9.110;2023-03-01T07:07:15;-0.50;99.90
28823;DHT22;15961;54.678;9.110;2023-03-01T07:09:43;-0.50;99.90
28823;DHT22;15961;54.678;9.110;2023-03-01T07:12:09;-0.40;99.90
28823;DHT22;15961;54.678;9.110;2023-03-01T07:14:34;-0.30;99.90
28823;DHT22;15961;54.678;9.110;2023-03-01T07:17:00;-0.30;99.90
28823;DHT22;15961;54.678;9.110;2023-03-01T07:19:25;-0.30;99.90
28823;DHT22;15961;54.678;9.110;2023-03-01T07:21:51;-0.20;99.90
28823;DHT22;15961;54.678;9.110;2023-03-01T07:24:17;-0.10;99.90
28823;DHT22;15961;54.678;9.110;2023-03-01T07:26:42;-0.20;99.90
28823;DHT22;15961;54.678;9.110;2023-03-01T07:29:09;-0.20;99.90
28823;DHT22;15961;54.678;9.110;2023-03-01T07:31:35;-0.10;99.90
28823;DHT22;15961;54.678;9.110;2023-03-01T07:34:02;0.00;99.90
28823;DHT22;15961;54.678;9.110;2023-03-01T07:36:28;0.10;99.90
28823;DHT22;15961;54.678;9.110;2023-03-01T07:38:53;0.10;99.90
28823;DHT22;15961;54.678;9.110;2023-03-01T07:41:20;0.20;99.90
28823;DHT22;15961;54.678;9.110;2023-03-01T07:43:46;0.20;99.90
28823;DHT22;15961;54.678;9.110;2023-03-01T07:46:14;0.20;99.90
28823;DHT22;15961;54.678;9.110;2023-03-01T07:48:39;0.30;99.90
28823;DHT22;15961;54.678;9.110;2023-03-01T07:51:07;0.30;99.90
28823;DHT22;15961;54.678;9.110;2023-03-01T07:53:34;0.30;99.90
28823;DHT22;15961;54.678;9.110;2023-03-01T07:56:06;0.30;99.90
28823;DHT22;15961;54.678;9.110;2023-03-01T07:58:34;0.40;99.90
28823;DHT22;15961;54.678;9.110;2023-03-01T08:01:05;0.50;99.90
28823;DHT22;15961;54.678;9.110;2023-03-01T08:03:31;0.50;99.90
28823;DHT22;15961;54.678;9.110;2023-03-01T08:06:00;0.70;99.90
28823;DHT22;15961;54.678;9.110;2023-03-01T08:08:25;0.70;99.90
28823;DHT22;15961;54.678;9.110;2023-03-01T08:10:51;0.80;99.90
28823;DHT22;15961;54.678;9.110;2023-03-01T08:13:17;0.80;99.90
28823;DHT22;15961;54.678;9.110;2023-03-01T08:15:48;1.00;99.90
28823;DHT22;15961;54.678;9.110;2023-03-01T08:18:13;0.90;99.90
28823;DHT22;15961;54.678;9.110;2023-03-01T08:20:39;1.10;99.90
28823;DHT22;15961;54.678;9.110;2023-03-01T08:23:04;1.10;99.90
28823;DHT22;15961;54.678;9.110;2023-03-01T08:25:30;1.10;99.90
28823;DHT22;15961;54.678;9.110;2023-03-01T08:27:55;1.10;99.90
28823;DHT22;15961;54.678;9.110;2023-03-01T08:30:21;1.10;99.90
28823;DHT22;15961;54.678;9.110;2023-03-01T08:32:49;1.20;99.90
28823;DHT22;15961;54.678;9.110;2023-03-01T08:35:14;1.30;99.90
28823;DHT22;15961;54.678;9.110;2023-03-01T08:37:40;1.40;99.90
28823;DHT22;15961;54.678;9.110;2023-03-01T08:40:06;1.50;99.90
28823;DHT22;15961;54.678;9.110;2023-03-01T08:42:34;1.60;99.90
28823;DHT22;15961;54.678;9.110;2023-03-01T08:44:59;1.50;99.90
28823;DHT22;15961;54.678;9.110;2023-03-01T08:47:24;1.50;99.90
28823;DHT22;15961;54.678;9.110;2023-03-01T08:49:51;1.50;99.90
28823;DHT22;15961;54.678;9.110;2023-03-01T08:52:18;1.60;99.90
28823;DHT22;15961;54.678;9.110;2023-03-01T08:54:44;1.60;99.90
28823;DHT22;15961;54.678;9.110;2023-03-01T08:57:10;1.70;99.90
28823;DHT22;15961;54.678;9.110;2023-03-01T08:59:35;1.90;99.90
28823;DHT22;15961;54.678;9.110;2023-03-01T09:02:03;2.00;99.90
28823;DHT22;15961;54.678;9.110;2023-03-01T09:04:29;2.10;99.90
28823;DHT22;15961;54.678;9.110;2023-03-01T09:06:55;2.10;99.90
28823;DHT22;15961;54.678;9.110;2023-03-01T09:09:20;2.20;99.90
28823;DHT22;15961;54.678;9.110;2023-03-01T09:11:46;2.00;99.90
28823;DHT22;15961;54.678;9.110;2023-03-01T09:14:12;2.10;99.90
28823;DHT22;15961;54.678;9.110;2023-03-01T09:16:38;2.10;99.90
28823;DHT22;15961;54.678;9.110;2023-03-01T09:19:05;2.30;99.90
28823;DHT22;15961;54.678;9.110;2023-03-01T09:21:30;2.40;99.90
28823;DHT22;15961;54.678;9.110;2023-03-01T09:23:57;2.50;99.90
28823;DHT22;15961;54.678;9.110;2023-03-01T09:26:23;2.60;99.90
28823;DHT22;15961;54.678;9.110;2023-03-01T09:28:50;2.50;99.90
28823;DHT22;15961;54.678;9.110;2023-03-01T09:31:17;2.50;99.90
28823;DHT22;15961;54.678;9.110;2023-03-01T09:33:46;2.60;99.90
28823;DHT22;15961;54.678;9.110;2023-03-01T09:36:17;2.60;99.90
28823;DHT22;15961;54.678;9.110;2023-03-01T09:38:43;2.70;99.90
28823;DHT22;15961;54.678;9.110;2023-03-01T09:44:20;2.70;99.90
28823;DHT22;15961;54.678;9.110;2023-03-01T09:46:49;2.80;99.90
28823;DHT22;15961;54.678;9.110;2023-03-01T09:49:19;2.90;99.90
28823;DHT22;15961;54.678;9.110;2023-03-01T09:51:58;3.00;99.90
28823;DHT22;15961;54.678;9.110;2023-03-01T09:54:24;3.10;99.90
28823;DHT22;15961;54.678;9.110;2023-03-01T09:59:59;3.30;99.90
28823;DHT22;15961;54.678;9.110;2023-03-01T10:02:47;3.20;99.90
28823;DHT22;15961;54.678;9.110;2023-03-01T10:05:46;3.30;99.90
28823;DHT22;15961;54.678;9.110;2023-03-01T10:08:36;3.30;99.90
28823;DHT22;15961;54.678;9.110;2023-03-01T10:11:05;3.30;99.90
28823;DHT22;15961;54.678;9.110;2023-03-01T10:19:00;3.50;99.90
28823;DHT22;15961;54.678;9.110;2023-03-01T10:21:28;3.50;99.90
28823;DHT22;15961;54.678;9.110;2023-03-01T10:24:05;3.60;99.90
28823;DHT22;15961;54.678;9.110;2023-03-01T10:26:55;3.60;99.90
28823;DHT22;15961;54.678;9.110;2023-03-01T10:29:30;3.80;99.90
28823;DHT22;15961;54.678;9.110;2023-03-01T10:31:57;4.00;99.90
28823;DHT22;15961;54.678;9.110;2023-03-01T10:34:34;4.10;99.90
28823;DHT22;15961;54.678;9.110;2023-03-01T10:37:12;3.90;99.90
28823;DHT22;15961;54.678;9.110;2023-03-01T10:40:00;4.00;99.90
28823;DHT22;15961;54.678;9.110;2023-03-01T10:42:29;4.00;99.90
28823;DHT22;15961;54.678;9.110;2023-03-01T10:44:56;3.90;99.90
28823;DHT22;15961;54.678;9.110;2023-03-01T10:47:24;4.00;99.90
28823;DHT22;15961;54.678;9.110;2023-03-01T10:49:56;3.90;99.90
28823;DHT22;15961;54.678;9.110;2023-03-01T10:52:28;3.90;99.90
28823;DHT22;15961;54.678;9.110;2023-03-01T10:55:01;3.90;99.90
28823;DHT22;15961;54.678;9.110;2023-03-01T10:57:31;4.00;99.90
28823;DHT22;15961;54.678;9.110;2023-03-01T11:00:13;4.00;99.90
28823;DHT22;15961;54.678;9.110;2023-03-01T11:02:42;4.20;99.90
28823;DHT22;15961;54.678;9.110;2023-03-01T11:07:59;4.30;99.90
28823;DHT22;15961;54.678;9.110;2023-03-01T11:10:30;4.40;99.90
28823;DHT22;15961;54.678;9.110;2023-03-01T11:13:17;4.50;99.90
28823;DHT22;15961;54.678;9.110;2023-03-01T11:15:58;4.40;99.90
28823;DHT22;15961;54.678;9.110;2023-03-01T11:18:31;4.40;99.90
28823;DHT22;15961;54.678;9.110;2023-03-01T11:20:58;4.50;99.90
28823;DHT22;15961;54.678;9.110;2023-03-01T11:23:29;4.70;99.90
28823;DHT22;15961;54.678;9.110;2023-03-01T11:25:58;4.80;99.90
28823;DHT22;15961;54.678;9.110;2023-03-01T11:28:26;4.80;99.90
28823;DHT22;15961;54.678;9.110;2023-03-01T11:31:05;4.50;99.90
28823;DHT22;15961;54.678;9.110;2023-03-01T11:33:39;4.70;99.90
28823;DHT22;15961;54.678;9.110;2023-03-01T11:36:07;4.70;99.90
28823;DHT22;15961;54.678;9.110;2023-03-01T11:38:38;4.70;99.90
28823;DHT22;15961;54.678;9.110;2023-03-01T12:00:11;4.70;99.90
28823;DHT22;15961;54.678;9.110;2023-03-01T12:02:42;4.90;99.90
28823;DHT22;15961;54.678;9.110;2023-03-01T12:08:46;4.90;99.90
28823;DHT22;15961;54.678;9.110;2023-03-01T12:22:39;4.60;99.90
28823;DHT22;15961;54.678;9.110;2023-03-01T12:36:32;4.90;99.90
28823;DHT22;15961;54.678;9.110;2023-03-01T12:39:17;4.90;99.90
28823;DHT22;15961;54.678;9.110;2023-03-01T12:48:15;4.90;99.90
28823;DHT22;15961;54.678;9.110;2023-03-01T12:50:53;5.20;99.90
28823;DHT22;15961;54.678;9.110;2023-03-01T12:53:46;5.20;99.90
28823;DHT22;15961;54.678;9.110;2023-03-01T12:56:16;5.40;99.90
28823;DHT22;15961;54.678;9.110;2023-03-01T12:59:11;5.40;99.90
28823;DHT22;15961;54.678;9.110;2023-03-01T13:02:00;5.30;99.90
28823;DHT22;15961;54.678;9.110;2023-03-01T13:10:49;5.20;99.90
28823;DHT22;15961;54.678;9.110;2023-03-01T13:13:23;5.60;99.90
28823;DHT22;15961;54.678;9.110;2023-03-01T13:15:50;5.90;99.90
28823;DHT22;15961;54.678;9.110;2023-03-01T13:20:50;6.00;99.90
28823;DHT22;15961;54.678;9.110;2023-03-01T13:30:57;5.40;99.90
28823;DHT22;15961;54.678;9.110;2023-03-01T13:35:51;5.70;99.90
28823;DHT22;15961;54.678;9.110;2023-03-01T13:38:55;5.50;99.90
28823;DHT22;15961;54.678;9.110;2023-03-01T13:47:08;7.00;99.90
28823;DHT22;15961;54.678;9.110;2023-03-01T13:49:57;7.20;99.90
28823;DHT22;15961;54.678;9.110;2023-03-01T13:52:41;7.20;99.90
28823;DHT22;15961;54.678;9.110;2023-03-01T13:57:41;8.70;99.90
28823;DHT22;15961;54.678;9.110;2023-03-01T14:00:25;9.00;99.90
28823;DHT22;15961;54.678;9.110;2023-03-01T14:03:17;8.60;99.90
28823;DHT22;15961;54.678;9.110;2023-03-01T14:08:28;7.50;99.90
28823;DHT22;15961;54.678;9.110;2023-03-01T14:16:31;9.60;99.90
28823;DHT22;15961;54.678;9.110;2023-03-01T14:19:19;9.60;99.90
28823;DHT22;15961;54.678;9.110;2023-03-01T14:22:20;9.30;99.90
28823;DHT22;15961;54.678;9.110;2023-03-01T14:24:56;8.70;99.90
28823;DHT22;15961;54.678;9.110;2023-03-01T14:27:27;8.70;99.90
28823;DHT22;15961;54.678;9.110;2023-03-01T14:30:02;9.30;99.90
28823;DHT22;15961;54.678;9.110;2023-03-01T14:32:30;9.70;99.90
28823;DHT22;15961;54.678;9.110;2023-03-01T14:34:57;9.50;99.90
28823;DHT22;15961;54.678;9.110;2023-03-01T14:37:26;9.20;99.90
28823;DHT22;15961;54.678;9.110;2023-03-01T14:39:53;8.70;99.90
28823;DHT22;15961;54.678;9.110;2023-03-01T14:42:21;8.50;99.90
28823;DHT22;15961;54.678;9.110;2023-03-01T14:44:51;8.10;99.90
28823;DHT22;15961;54.678;9.110;2023-03-01T14:47:38;8.00;99.90
28823;DHT22;15961;54.678;9.110;2023-03-01T14:50:07;7.80;99.90
28823;DHT22;15961;54.678;9.110;2023-03-01T14:52:39;7.80;99.90
28823;DHT22;15961;54.678;9.110;2023-03-01T14:57:52;7.80;99.90
28823;DHT22;15961;54.678;9.110;2023-03-01T15:00:30;7.60;99.90
28823;DHT22;15961;54.678;9.110;2023-03-01T15:03:01;7.30;99.90
28823;DHT22;15961;54.678;9.110;2023-03-01T15:05:32;7.10;99.90
28823;DHT22;15961;54.678;9.110;2023-03-01T15:08:00;7.00;99.90
28823;DHT22;15961;54.678;9.110;2023-03-01T15:10:35;6.90;99.90
28823;DHT22;15961;54.678;9.110;2023-03-01T15:13:24;6.90;99.90
28823;DHT22;15961;54.678;9.110;2023-03-01T15:15:51;6.80;99.90
28823;DHT22;15961;54.678;9.110;2023-03-01T15:18:27;6.80;99.90
28823;DHT22;15961;54.678;9.110;2023-03-01T15:20:54;6.80;99.90
28823;DHT22;15961;54.678;9.110;2023-03-01T15:23:25;6.80;99.90
28823;DHT22;15961;54.678;9.110;2023-03-01T15:28:20;6.50;99.90
28823;DHT22;15961;54.678;9.110;2023-03-01T15:30:56;6.40;99.90
28823;DHT22;15961;54.678;9.110;2023-03-01T15:35:56;6.00;99.90
28823;DHT22;15961;54.678;9.110;2023-03-01T15:41:00;5.80;99.90
28823;DHT22;15961;54.678;9.110;2023-03-01T15:43:44;5.60;99.90
28823;DHT22;15961;54.678;9.110;2023-03-01T15:46:34;5.60;99.90
28823;DHT22;15961;54.678;9.110;2023-03-01T15:49:40;5.60;99.90
28823;DHT22;15961;54.678;9.110;2023-03-01T15:52:13;5.50;99.90
28823;DHT22;15961;54.678;9.110;2023-03-01T15:54:40;5.30;99.90
28823;DHT22;15961;54.678;9.110;2023-03-01T15:57:12;5.20;99.90
28823;DHT22;15961;54.678;9.110;2023-03-01T15:59:40;5.20;99.90
28823;DHT22;15961;54.678;9.110;2023-03-01T16:02:12;5.10;99.90
28823;DHT22;15961;54.678;9.110;2023-03-01T16:04:39;5.10;99.90
28823;DHT22;15961;54.678;9.110;2023-03-01T16:07:04;5.10;99.90
28823;DHT22;15961;54.678;9.110;2023-03-01T16:09:30;5.10;99.90
28823;DHT22;15961;54.678;9.110;2023-03-01T16:11:56;5.00;99.90
28823;DHT22;15961;54.678;9.110;2023-03-01T16:14:21;5.00;99.90
28823;DHT22;15961;54.678;9.110;2023-03-01T16:16:47;5.00;99.90
28823;DHT22;15961;54.678;9.110;2023-03-01T16:19:13;5.10;99.90
28823;DHT22;15961;54.678;9.110;2023-03-01T16:21:39;5.00;99.90
28823;DHT22;15961;54.678;9.110;2023-03-01T16:24:05;5.10;99.90
28823;DHT22;15961;54.678;9.110;2023-03-01T16:26:31;5.00;99.90
28823;DHT22;15961;54.678;9.110;2023-03-01T16:28:57;5.00;99.90
28823;DHT22;15961;54.678;9.110;2023-03-01T16:31:24;4.90;99.90
28823;DHT22;15961;54.678;9.110;2023-03-01T16:33:54;4.80;99.90
28823;DHT22;15961;54.678;9.110;2023-03-01T16:36:21;4.70;99.90
28823;DHT22;15961;54.678;9.110;2023-03-01T16:38:49;4.60;99.90
28823;DHT22;15961;54.678;9.110;2023-03-01T16:41:17;4.50;99.90
28823;DHT22;15961;54.678;9.110;2023-03-01T16:43:43;4.40;99.90
28823;DHT22;15961;54.678;9.110;2023-03-01T16:46:22;4.40;99.90
28823;DHT22;15961;54.678;9.110;2023-03-01T16:48:49;4.50;99.90
28823;DHT22;15961;54.678;9.110;2023-03-01T16:51:14;4.40;99.90
28823;DHT22;15961;54.678;9.110;2023-03-01T16:53:40;4.40;99.90
28823;DHT22;15961;54.678;9.110;2023-03-01T16:56:08;4.40;99.90
28823;DHT22;15961;54.678;9.110;2023-03-01T16:58:35;4.40;99.90
28823;DHT22;15961;54.678;9.110;2023-03-01T17:01:13;4.40;99.90
28823;DHT22;15961;54.678;9.110;2023-03-01T17:03:40;4.40;99.90
28823;DHT22;15961;54.678;9.110;2023-03-01T17:06:09;4.40;99.90
28823;DHT22;15961;54.678;9.110;2023-03-01T17:08:35;4.30;99.90
28823;DHT22;15961;54.678;9.110;2023-03-01T17:11:06;4.30;99.90
28823;DHT22;15961;54.678;9.110;2023-03-01T17:13:33;4.30;99.90
28823;DHT22;15961;54.678;9.110;2023-03-01T17:15:59;4.30;99.90
28823;DHT22;15961;54.678;9.110;2023-03-01T17:18:25;4.20;99.90
28823;DHT22;15961;54.678;9.110;2023-03-01T17:20:50;4.10;99.90
28823;DHT22;15961;54.678;9.110;2023-03-01T17:23:16;4.10;99.90
28823;DHT22;15961;54.678;9.110;2023-03-01T17:25:45;4.10;99.90
28823;DHT22;15961;54.678;9.110;2023-03-01T17:28:11;3.90;99.90
28823;DHT22;15961;54.678;9.110;2023-03-01T17:30:37;3.90;99.90
28823;DHT22;15961;54.678;9.110;2023-03-01T17:33:02;3.70;99.90
28823;DHT22;15961;54.678;9.110;2023-03-01T17:35:28;3.60;99.90
28823;DHT22;15961;54.678;9.110;2023-03-01T17:37:53;3.40;99.90
28823;DHT22;15961;54.678;9.110;2023-03-01T17:40:19;3.20;99.90
28823;DHT22;15961;54.678;9.110;2023-03-01T17:42:45;3.00;99.90
28823;DHT22;15961;54.678;9.110;2023-03-01T17:45:11;2.80;99.90
28823;DHT22;15961;54.678;9.110;2023-03-01T17:47:36;2.60;99.90
28823;DHT22;15961;54.678;9.110;2023-03-01T17:50:03;2.50;99.90
28823;DHT22;15961;54.678;9.110;2023-03-01T17:52:30;2.30;99.90
28823;DHT22;15961;54.678;9.110;2023-03-01T17:54:55;2.20;99.90